Time;durP1;ratioP1;P1;durP2;ratioP2;P2;SDS_P1;SDS_P2;PMS_P1;PMS_P2;Temp;Humidity;BMP_temperature;BMP_pressure;BME280_temperature;BME280_humidity;BME280_pressure;Samples;Min_cycle;Max_cycle;Signal;HPM_P1;HPM_P2
2021/04/02 00:00:53;;;;;;;34.88;22.15;;;;;;;12.24;65.03;98436.56;1827138;78;21588;-41
2021/04/02 00:03:28;;;;;;;34.83;21.40;;;;;;;12.20;64.27;98435.20;1827029;78;22615;-41
2021/04/02 00:05:56;;;;;;;33.28;22.17;;;;;;;12.15;64.30;98428.83;1827041;78;21600;-41
2021/04/02 00:08:24;;;;;;;30.75;21.50;;;;;;;12.10;64.27;98415.64;1826942;78;21137;-41
2021/04/02 00:10:57;;;;;;;28.17;20.17;;;;;;;12.06;63.75;98402.63;1827165;78;21818;-41
2021/04/02 00:13:29;;;;;;;28.73;20.75;;;;;;;11.99;63.85;98409.45;1826959;78;21592;-41
2021/04/02 00:15:57;;;;;;;32.30;20.40;;;;;;;11.89;63.60;98408.89;1827103;78;21196;-41
2021/04/02 00:18:27;;;;;;;31.00;20.02;;;;;;;11.80;63.73;98403.09;1827083;78;21149;-41
2021/04/02 00:20:57;;;;;;;28.00;19.20;;;;;;;11.72;63.92;98405.80;1827329;78;21015;-41
2021/04/02 00:23:26;;;;;;;29.72;19.00;;;;;;;11.71;63.66;98404.21;1826958;78;21428;-41
2021/04/02 00:25:54;;;;;;;28.07;19.30;;;;;;;11.67;63.52;98398.59;1827009;78;21122;-41
2021/04/02 00:28:24;;;;;;;;;;;;;;;11.65;63.68;98400.94;1829633;78;21203;-41
2021/04/02 00:30:56;;;;;;;31.00;19.87;;;;;;;11.62;63.41;98394.34;1827204;78;20235;-41
2021/04/02 00:33:27;;;;;;;30.50;20.57;;;;;;;11.50;63.59;98389.31;1792570;80;22265;-41
2021/04/02 00:35:55;;;;;;;27.37;19.82;;;;;;;11.48;63.80;98390.27;1827086;78;21114;-41
2021/04/02 00:38:23;;;;;;;29.45;20.57;;;;;;;11.47;64.04;98391.46;1826911;78;21899;-41
2021/04/02 00:40:55;;;;;;;28.38;20.72;;;;;;;11.44;64.11;98380.01;1827202;78;22032;-41
2021/04/02 00:43:28;;;;;;;32.45;20.43;;;;;;;11.44;64.17;98388.73;1775064;78;21162;-41
2021/04/02 00:45:56;;;;;;;28.62;19.05;;;;;;;11.44;64.03;98376.52;1793516;80;21189;-41
2021/04/02 00:48:24;;;;;;;28.67;19.87;;;;;;;11.42;64.05;98376.92;1793632;80;21408;-41
2021/04/02 00:50:58;;;;;;;28.87;21.07;;;;;;;11.38;64.21;98378.84;1762507;81;21229;-41
2021/04/02 00:53:28;;;;;;;31.33;20.43;;;;;;;11.34;64.33;98386.20;1793749;80;21427;-41
2021/04/02 00:55:56;;;;;;;28.62;20.32;;;;;;;11.27;64.11;98375.38;1762353;81;21180;-41
2021/04/02 00:58:28;;;;;;;32.30;20.40;;;;;;;11.22;64.02;98364.91;1793867;80;21181;-41
2021/04/02 01:00:56;;;;;;;31.33;21.23;;;;;;;11.17;64.04;98368.78;1762370;81;21629;-41
2021/04/02 01:03:24;;;;;;;27.32;18.30;;;;;;;11.13;64.10;98364.52;1793639;80;21149;-41
2021/04/02 01:05:56;;;;;;;34.33;19.02;;;;;;;11.07;64.39;98363.34;1737388;81;21620;-41
2021/04/02 01:08:27;;;;;;;;;;;;;;;11.05;64.68;98362.94;1758673;81;21058;-41
2021/04/02 01:10:57;;;;;;;30.80;19.23;;;;;;;11.04;64.84;98356.73;1756323;81;20211;-41
2021/04/02 01:13:42;;;;;;;26.35;18.20;;;;;;;10.91;65.24;98348.79;1726450;83;21219;-41
2021/04/02 01:16:17;;;;;;;29.25;18.32;;;;;;;10.95;65.35;98346.85;1756061;81;21185;-41
2021/04/02 01:19:18;;;;;;;27.25;18.95;;;;;;;10.94;65.39;98332.34;1699495;83;21513;-41
2021/04/02 01:21:57;;;;;;;24.82;17.73;;;;;;;10.90;65.52;98324.96;1729492;82;21221;-41
2021/04/02 01:24:47;;;;;;;26.62;17.57;;;;;;;10.85;65.64;98327.28;1729623;82;21651;-42
2021/04/02 01:27:52;;;;;;;29.18;18.73;;;;;;;10.87;65.73;98327.10;1756340;81;21118;-41
2021/04/02 01:30:21;;;;;;;26.02;17.17;;;;;;;10.90;65.74;98318.19;1726063;83;21172;-41
2021/04/02 01:32:49;;;;;;;26.07;17.75;;;;;;;10.93;65.85;98322.66;1751354;81;21687;-41
2021/04/02 01:35:27;;;;;;;25.05;17.35;;;;;;;10.98;65.82;98322.27;1756122;81;21233;-41
2021/04/02 01:38:19;;;;;;;27.37;17.25;;;;;;;11.01;65.70;98310.64;1726030;83;21383;-41
2021/04/02 01:40:51;;;;;;;25.50;16.90;;;;;;;11.02;65.60;98302.70;1707850;82;21233;-41
2021/04/02 01:43:23;;;;;;;25.10;16.70;;;;;;;11.00;65.53;98304.44;1752779;81;21224;-41
2021/04/02 01:45:51;;;;;;;24.12;17.05;;;;;;;11.01;65.46;98300.56;1761335;81;22282;-41
2021/04/02 01:48:20;;;;;;;24.20;16.90;;;;;;;11.01;65.43;98295.72;1761314;81;21185;-41
2021/04/02 01:50:50;;;;;;;22.80;16.00;;;;;;;11.07;65.29;98294.17;1744106;81;21582;-41
2021/04/02 01:53:25;;;;;;;24.45;16.17;;;;;;;11.12;65.11;98295.14;1761250;81;21433;-41
2021/04/02 01:55:54;;;;;;;24.15;16.00;;;;;;;11.14;65.00;98284.66;1761208;81;21143;-41
2021/04/02 01:58:24;;;;;;;27.27;17.70;;;;;;;11.13;64.93;98287.98;1760768;80;22138;-41
2021/04/02 02:00:55;;;;;;;24.27;16.95;;;;;;;11.15;64.85;98286.22;1756385;81;21188;-41
2021/04/02 02:03:25;;;;;;;24.37;16.80;;;;;;;11.14;64.78;98280.59;1729258;82;21189;-41
2021/04/02 02:05:54;;;;;;;25.88;15.98;;;;;;;11.14;64.72;98283.31;1768486;80;21384;-41
2021/04/02 02:08:24;;;;;;;28.77;17.32;;;;;;;11.12;64.74;98276.94;1785294;80;21153;-41
2021/04/02 02:11:17;;;;;;;27.40;16.23;;;;;;;11.07;64.79;98275.19;1757048;80;21202;-41
2021/04/02 02:13:55;;;;;;;28.40;15.50;;;;;;;11.04;64.78;98278.08;1782922;80;21166;-42
2021/04/02 02:16:27;;;;;;;26.40;16.17;;;;;;;11.11;64.76;98288.16;1788152;80;21056;-41
2021/04/02 02:18:59;;;;;;;20.52;14.98;;;;;;;11.11;64.79;98271.89;1757211;80;21182;-41
2021/04/02 02:21:27;;;;;;;22.93;15.65;;;;;;;11.08;64.85;98272.67;1787730;80;21138;-41
2021/04/02 02:23:57;;;;;;;22.02;15.00;;;;;;;11.04;64.85;98269.17;1788004;80;22846;-41
2021/04/02 02:26:26;;;;;;;25.08;15.00;;;;;;;11.01;64.90;98271.31;1757148;80;21453;-41
2021/04/02 02:28:56;;;;;;;24.35;15.85;;;;;;;10.97;65.02;98278.10;1777955;80;21169;-41
2021/04/02 02:31:24;;;;;;;21.57;14.80;;;;;;;10.90;65.10;98276.16;1788237;80;21142;-41
2021/04/02 02:33:52;;;;;;;26.48;16.10;;;;;;;10.86;65.16;98274.03;1788056;80;21761;-41
2021/04/02 02:36:22;;;;;;;20.10;14.80;;;;;;;10.83;65.26;98268.03;1780577;80;21230;-41
2021/04/02 02:38:49;;;;;;;23.47;14.90;;;;;;;10.81;65.33;98263.57;1787985;80;21153;-41
2021/04/02 02:41:19;;;;;;;22.70;15.70;;;;;;;10.82;65.27;98258.34;1788172;80;21208;-41
2021/04/02 02:43:47;;;;;;;23.42;15.18;;;;;;;10.81;65.27;98264.92;1800965;78;21205;-41
2021/04/02 02:46:17;;;;;;;22.45;15.10;;;;;;;10.78;65.28;98279.27;1820514;78;21150;-41
2021/04/02 02:48:46;;;;;;;22.95;15.32;;;;;;;10.83;65.45;98293.80;1756122;80;21609;-41
2021/04/02 02:51:17;;;;;;;21.82;15.60;;;;;;;10.90;65.65;98300.56;1786281;80;21216;-41
2021/04/02 02:53:45;;;;;;;22.67;16.02;;;;;;;10.97;65.35;98294.37;1815199;78;21386;-41
2021/04/02 02:56:16;;;;;;;25.72;16.12;;;;;;;11.00;64.92;98294.16;1756468;80;21173;-41
2021/04/02 02:58:44;;;;;;;20.10;15.38;;;;;;;10.94;64.54;98286.25;1786276;80;21217;-41
2021/04/02 03:01:14;;;;;;;21.82;15.20;;;;;;;10.90;64.56;98284.29;1786543;80;21228;-41
2021/04/02 03:03:43;;;;;;;20.62;14.33;;;;;;;10.97;64.63;98285.46;1791052;78;21106;-41
2021/04/02 03:06:13;;;;;;;20.45;15.55;;;;;;;11.04;64.16;98280.02;1815858;78;21101;-41
2021/04/02 03:08:45;;;;;;;23.87;14.65;;;;;;;11.12;64.03;98277.52;1826917;78;21399;-41
2021/04/02 03:11:16;;;;;;;22.42;15.30;;;;;;;11.13;63.71;98279.07;1788424;80;21585;-41
2021/04/02 03:13:46;;;;;;;22.13;14.58;;;;;;;11.14;63.83;98275.95;1798214;79;21364;-41
2021/04/02 03:16:15;;;;;;;24.35;15.32;;;;;;;11.17;63.61;98281.97;1798241;79;21130;-41
2021/04/02 03:18:46;;;;;;;21.60;14.90;;;;;;;11.14;63.69;98279.23;1818825;78;21620;-41
2021/04/02 03:21:14;;;;;;;20.62;14.83;;;;;;;11.08;63.43;98282.95;1818924;78;21027;-41
2021/04/02 03:23:43;;;;;;;24.20;15.72;;;;;;;11.01;63.49;98283.52;1819022;78;21174;-41
2021/04/02 03:26:12;;;;;;;23.15;15.68;;;;;;;10.90;63.60;98287.00;1792195;78;21581;-41
2021/04/02 03:28:41;;;;;;;20.48;15.10;;;;;;;10.82;63.77;98285.45;1819028;78;21620;-41
2021/04/02 03:31:11;;;;;;;22.42;14.65;;;;;;;10.74;63.98;98286.63;1767498;78;21142;-41
2021/04/02 03:33:46;;;;;;;25.43;15.93;;;;;;;10.74;64.10;98288.56;1818852;78;21169;-41
2021/04/02 03:36:19;;;;;;;22.70;14.95;;;;;;;10.76;64.14;98280.22;1818796;78;21138;-42
2021/04/02 03:38:48;;;;;;;20.97;14.85;;;;;;;10.79;64.16;98271.91;1819028;78;21177;-41
2021/04/02 03:41:30;;;;;;;20.82;14.65;;;;;;;10.85;64.24;98265.70;1817932;78;21191;-41
2021/04/02 03:43:59;;;;;;;23.80;15.05;;;;;;;10.94;64.23;98269.98;1761017;80;21445;-41
2021/04/02 03:46:28;;;;;;;21.02;14.80;;;;;;;10.99;64.53;98272.30;1744261;81;21149;-41
2021/04/02 03:48:59;;;;;;;24.92;16.57;;;;;;;11.03;64.40;98279.84;1753165;81;21625;-41
2021/04/02 03:51:27;;;;;;;26.75;16.30;;;;;;;11.08;64.15;98277.52;1785991;80;22375;-41
2021/04/02 03:54:03;;;;;;;22.40;15.25;;;;;;;11.06;63.65;98283.12;1772266;81;21648;-41
2021/04/02 03:56:35;;;;;;;21.25;15.20;;;;;;;11.01;63.79;98278.09;1772165;81;21182;-41
2021/04/02 03:59:04;;;;;;;21.77;15.40;;;;;;;11.01;64.09;98285.65;1753157;81;21633;-41
2021/04/02 04:01:38;;;;;;;21.35;15.80;;;;;;;11.00;64.12;98289.52;1785728;79;21198;-41
2021/04/02 04:04:06;;;;;;;21.42;14.83;;;;;;;11.02;64.23;98287.20;1753140;81;21430;-41
2021/04/02 04:06:36;;;;;;;20.25;14.25;;;;;;;11.08;64.07;98275.39;1782431;80;21031;-41
2021/04/02 04:09:13;;;;;;;22.50;15.35;;;;;;;11.15;63.38;98269.94;1747616;81;21194;-41
2021/04/02 04:11:42;;;;;;;22.42;14.13;;;;;;;10.86;63.32;98219.80;1749726;80;21146;-41
2021/04/02 04:14:12;;;;;;;20.10;14.15;;;;;;;11.19;63.27;98269.36;1761262;81;21200;-41
2021/04/02 04:16:41;;;;;;;17.30;13.40;;;;;;;11.22;63.74;98263.16;1761150;81;23512;-41
2021/04/02 04:19:10;;;;;;;22.67;14.50;;;;;;;11.26;64.15;98259.86;1761186;81;21059;-41
2021/04/02 04:21:42;;;;;;;;;;;;;;;11.31;64.10;98258.11;1763135;81;21067;-41
2021/04/02 04:24:15;;;;;;;24.30;15.28;;;;;;;11.33;63.82;98259.83;1760467;81;20264;-41
2021/04/02 04:26:45;;;;;;;20.62;15.88;;;;;;;11.24;63.88;98262.18;1761190;81;21115;-41
2021/04/02 04:29:17;;;;;;;20.43;14.30;;;;;;;11.26;64.01;98266.64;1732075;81;22129;-41
2021/04/02 04:31:45;;;;;;;21.42;15.28;;;;;;;11.26;64.52;98265.28;1761084;81;21138;-41
2021/04/02 04:34:14;;;;;;;20.30;14.45;;;;;;;11.25;64.77;98273.23;1761116;81;21302;-41
2021/04/02 04:36:44;;;;;;;19.83;14.23;;;;;;;11.31;64.42;98271.09;1761360;81;21142;-41
2021/04/02 04:39:12;;;;;;;21.68;14.18;;;;;;;11.41;64.04;98269.53;1761375;81;21416;-41
2021/04/02 04:41:40;;;;;;;21.90;15.13;;;;;;;11.47;63.82;98266.62;1761092;81;21195;-41
2021/04/02 04:44:08;;;;;;;21.12;14.03;;;;;;;11.50;63.68;98269.89;1761052;80;21177;-41
2021/04/02 04:46:36;;;;;;;21.97;15.05;;;;;;;11.53;63.49;98262.31;1761125;81;21063;-41
2021/04/02 04:49:04;;;;;;;23.32;14.55;;;;;;;11.56;63.56;98244.48;1761080;81;21157;-41
2021/04/02 04:51:33;;;;;;;22.62;15.72;;;;;;;11.53;63.16;98252.81;1731831;81;21624;-41
2021/04/02 04:54:02;;;;;;;21.17;15.68;;;;;;;11.49;63.31;98252.63;1731601;81;21293;-42
2021/04/02 04:56:31;;;;;;;20.77;16.05;;;;;;;11.46;64.04;98242.58;1761042;81;21059;-41
2021/04/02 04:59:01;;;;;;;26.25;16.05;;;;;;;11.47;64.22;98229.98;1761192;81;21019;-41
2021/04/02 05:01:39;;;;;;;;;;;;;;;11.46;64.59;98218.14;1763782;81;21210;-41
2021/04/02 05:04:08;;;;;;;23.07;15.95;;;;;;;11.43;64.98;98215.62;1761212;81;20276;-41
2021/04/02 05:06:36;;;;;;;23.05;16.52;;;;;;;11.26;65.63;98199.59;1756368;81;21378;-41
2021/04/02 05:09:05;;;;;;;21.82;15.45;;;;;;;11.07;65.97;98202.73;1750448;82;21170;-41
2021/04/02 05:11:38;;;;;;;22.17;15.00;;;;;;;10.93;66.38;98219.03;1750382;82;21147;-41
2021/04/02 05:14:07;;;;;;;22.22;15.30;;;;;;;10.90;66.75;98219.79;1750541;82;21145;-41
2021/04/02 05:16:35;;;;;;;24.47;16.42;;;;;;;10.88;66.92;98224.27;1725155;82;21165;-41
2021/04/02 05:19:04;;;;;;;20.17;15.45;;;;;;;10.89;67.29;98201.39;1750446;82;21366;-42
2021/04/02 05:21:33;;;;;;;22.75;15.88;;;;;;;10.91;67.48;98201.01;1750613;81;21072;-41
2021/04/02 05:24:01;;;;;;;21.42;16.15;;;;;;;10.87;67.70;98204.31;1750420;82;21059;-42
2021/04/02 05:26:30;;;;;;;21.62;15.20;;;;;;;10.84;68.12;98201.03;1750195;82;21218;-41
2021/04/02 05:28:57;;;;;;;22.48;15.30;;;;;;;10.79;68.70;98202.20;1750402;82;21199;-41
2021/04/02 05:31:25;;;;;;;20.90;15.55;;;;;;;10.80;68.88;98203.72;1750362;82;21143;-41
2021/04/02 05:33:55;;;;;;;22.07;15.93;;;;;;;10.90;68.93;98204.88;1746726;82;21995;-41
2021/04/02 05:36:23;;;;;;;25.45;16.97;;;;;;;11.03;68.81;98218.25;1750412;82;21139;-41
2021/04/02 05:38:52;;;;;;;25.45;17.00;;;;;;;11.14;69.06;98224.98;1750432;82;21430;-41
2021/04/02 05:41:29;;;;;;;26.62;18.90;;;;;;;10.85;69.09;98178.16;1750440;82;21098;-41
2021/04/02 05:44:02;;;;;;;24.10;17.00;;;;;;;11.18;69.19;98252.91;1749122;82;21587;-41
2021/04/02 05:46:30;;;;;;;24.20;16.73;;;;;;;11.13;69.38;98261.44;1747686;82;21173;-41
2021/04/02 05:49:03;;;;;;;24.80;16.70;;;;;;;11.12;69.74;98257.95;1748039;82;21175;-41
2021/04/02 05:51:31;;;;;;;23.50;17.20;;;;;;;11.14;69.90;98249.41;1747992;82;21621;-41
2021/04/02 05:54:00;;;;;;;26.50;18.12;;;;;;;11.15;70.08;98250.38;1747933;82;21277;-41
2021/04/02 05:56:28;;;;;;;25.85;18.12;;;;;;;11.20;70.05;98261.41;1747812;82;21210;-41
2021/04/02 05:58:57;;;;;;;24.05;18.00;;;;;;;11.23;70.04;98270.15;1747955;82;21155;-41
2021/04/02 06:01:25;;;;;;;25.23;17.60;;;;;;;11.25;70.06;98274.58;1747877;82;21155;-41
2021/04/02 06:03:54;;;;;;;24.30;18.17;;;;;;;11.28;69.99;98275.16;1747934;82;21151;-41
2021/04/02 06:06:22;;;;;;;26.50;19.48;;;;;;;11.30;69.80;98282.33;1747894;81;21185;-41
2021/04/02 06:08:50;;;;;;;35.17;23.18;;;;;;;11.26;69.73;98293.20;1747853;82;21377;-41
2021/04/02 06:11:19;;;;;;;32.63;22.48;;;;;;;11.22;69.82;98297.86;1747855;82;21151;-41
2021/04/02 06:13:48;;;;;;;27.65;20.43;;;;;;;11.16;69.57;98299.41;1748078;82;21040;-41
2021/04/02 06:16:17;;;;;;;26.62;20.30;;;;;;;11.13;69.91;98304.84;1747747;82;21131;-41
2021/04/02 06:21:54;;;;;;;30.40;21.20;;;;;;;11.09;70.10;98304.04;1835587;78;22580;-40
2021/04/02 06:24:39;;;;;;;27.02;19.62;;;;;;;10.98;70.40;98308.13;1807508;79;21036;-40
2021/04/02 06:27:10;;;;;;;29.32;21.23;;;;;;;10.94;70.78;98316.08;1807034;79;22111;-41
2021/04/02 06:29:42;;;;;;;29.27;20.65;;;;;;;10.95;71.49;98309.47;1807864;79;21020;-40
2021/04/02 06:32:15;;;;;;;29.45;20.68;;;;;;;10.96;71.73;98305.59;1807909;79;21593;-40
2021/04/02 06:34:50;;;;;;;32.30;21.50;;;;;;;10.94;72.10;98307.94;1807980;79;21542;-40
2021/04/02 06:37:18;;;;;;;28.45;20.35;;;;;;;10.90;72.69;98308.69;1795853;79;21170;-40
2021/04/02 06:39:52;;;;;;;25.40;20.70;;;;;;;10.88;72.96;98312.39;1787833;79;22133;-40
2021/04/02 06:42:33;;;;;;;25.48;20.17;;;;;;;10.93;73.26;98318.01;1807741;79;21653;-41
2021/04/02 06:45:09;;;;;;;29.20;22.02;;;;;;;10.99;73.65;98318.41;1778467;79;22107;-40
2021/04/02 06:47:39;;;;;;;27.40;22.17;;;;;;;10.98;74.12;98316.84;1776041;80;21178;-40
2021/04/02 06:50:24;;;;;;;;;;;;;;;11.00;74.50;98320.70;1778820;80;21571;-40
2021/04/02 06:52:55;;;;;;;28.98;19.67;;;;;;;11.08;74.57;98326.92;1776116;80;22350;-40
2021/04/02 06:55:26;;;;;;;29.80;20.90;;;;;;;11.14;74.69;98325.35;1775835;80;21170;-40
2021/04/02 06:57:55;;;;;;;25.85;17.77;;;;;;;11.19;74.62;98330.39;1776333;80;21103;-40
2021/04/02 07:00:26;;;;;;;20.93;17.63;;;;;;;11.15;74.33;98328.27;1776168;80;21464;-40
2021/04/02 07:02:54;;;;;;;18.35;13.65;;;;;;;11.10;74.14;98330.01;1776660;79;21590;-40
2021/04/02 07:05:26;;;;;;;18.35;12.70;;;;;;;11.04;73.85;98345.11;1775902;80;21277;-40
2021/04/02 07:08:00;;;;;;;16.90;11.63;;;;;;;11.02;73.55;98342.80;1775967;80;22101;-40
2021/04/02 07:10:28;;;;;;;18.50;12.93;;;;;;;10.94;73.47;98346.66;1776085;80;22326;-40
2021/04/02 07:12:59;;;;;;;15.98;11.75;;;;;;;10.85;73.57;98349.75;1781521;79;21139;-40
2021/04/02 07:15:34;;;;;;;15.28;11.65;;;;;;;10.75;73.43;98350.50;1792326;79;21043;-40
2021/04/02 07:18:08;;;;;;;13.38;10.23;;;;;;;10.63;73.30;98363.08;1788486;79;21356;-39
2021/04/02 07:20:36;;;;;;;14.98;10.72;;;;;;;10.56;73.24;98369.81;1706102;83;21195;-40
2021/04/02 07:23:04;;;;;;;15.40;10.55;;;;;;;10.45;73.41;98376.58;1718091;83;21692;-40
2021/04/02 07:25:42;;;;;;;16.42;9.60;;;;;;;10.42;73.60;98371.91;1808957;78;22697;-40
2021/04/02 07:28:11;;;;;;;13.58;9.08;;;;;;;10.34;73.54;98382.53;1783949;80;21592;-40
2021/04/02 07:30:39;;;;;;;13.78;9.78;;;;;;;10.33;73.39;98390.45;1783814;80;22441;-40
2021/04/02 07:33:10;;;;;;;12.03;8.73;;;;;;;10.27;73.10;98392.55;1784014;80;21154;-40
2021/04/02 07:35:40;;;;;;;11.68;8.55;;;;;;;10.14;73.00;98396.72;1783686;80;21019;-40
2021/04/02 07:38:14;;;;;;;13.32;7.95;;;;;;;9.97;73.21;98403.00;1791642;79;21068;-40
2021/04/02 07:40:46;;;;;;;9.83;7.83;;;;;;;9.94;73.33;98411.11;1748413;82;21047;-40
2021/04/02 07:43:13;;;;;;;10.15;7.28;;;;;;;9.97;73.27;98416.54;1741090;82;21639;-40
2021/04/02 07:45:41;;;;;;;11.08;7.97;;;;;;;9.93;73.12;98420.38;1752521;80;21032;-40
2021/04/02 07:48:24;;;;;;;8.98;7.45;;;;;;;9.91;73.13;98422.14;1748868;82;20984;-40
2021/04/02 07:50:59;;;;;;;9.48;5.70;;;;;;;9.90;72.99;98423.28;1717587;83;21193;-40
2021/04/02 07:53:32;;;;;;;14.38;7.05;;;;;;;9.87;72.68;98421.34;1717556;83;21187;-40
2021/04/02 07:56:11;;;;;;;9.80;6.80;;;;;;;9.85;72.61;98426.34;1717403;83;21334;-40
2021/04/02 07:58:50;;;;;;;9.15;6.80;;;;;;;9.83;72.45;98427.86;1717467;83;21162;-40
2021/04/02 08:01:23;;;;;;;10.18;7.05;;;;;;;9.72;72.38;98423.75;1717463;82;21613;-40
2021/04/02 08:03:53;;;;;;;8.05;6.47;;;;;;;9.62;72.76;98425.02;1748718;82;21040;-40
2021/04/02 08:06:38;;;;;;;9.90;6.55;;;;;;;9.58;72.73;98426.34;1720520;81;21526;-40
2021/04/02 08:09:09;;;;;;;8.65;6.75;;;;;;;9.55;72.94;98427.86;1754364;81;21371;-40
2021/04/02 08:11:46;;;;;;;7.72;6.03;;;;;;;9.56;72.96;98432.70;1771182;80;21044;-40
2021/04/02 08:14:14;;;;;;;7.78;6.28;;;;;;;9.51;72.96;98431.12;1779932;80;21271;-40
2021/04/02 08:16:54;;;;;;;8.38;5.00;;;;;;;9.51;72.89;98441.16;1779690;80;21174;-40
2021/04/02 08:19:34;;;;;;;5.47;3.70;;;;;;;9.52;72.08;98433.25;1779920;80;21601;-40
2021/04/02 08:22:13;;;;;;;5.87;4.30;;;;;;;9.49;71.88;98442.88;1779679;80;22302;-40
2021/04/02 08:24:47;;;;;;;6.90;4.47;;;;;;;9.39;71.93;98436.05;1771032;80;21163;-40
2021/04/02 08:27:16;;;;;;;6.55;3.30;;;;;;;9.31;72.25;98445.23;1742534;81;21920;-40
2021/04/02 08:29:46;;;;;;;5.25;3.75;;;;;;;9.24;72.06;98443.26;1745224;82;21143;-40
2021/04/02 08:32:17;;;;;;;4.37;3.80;;;;;;;9.25;72.34;98444.01;1781116;80;21148;-40
2021/04/02 08:34:47;;;;;;;4.70;3.30;;;;;;;9.25;72.62;98439.95;1773228;80;21182;-40
2021/04/02 08:37:14;;;;;;;5.35;3.30;;;;;;;9.22;72.17;98441.48;1755035;81;21150;-40
2021/04/02 08:39:42;;;;;;;3.27;2.92;;;;;;;9.16;72.01;98444.32;1708319;81;21186;-40
2021/04/02 08:42:12;;;;;;;4.00;3.10;;;;;;;9.10;72.04;98449.28;1771380;80;21142;-40
2021/04/02 08:44:43;;;;;;;4.25;2.60;;;;;;;9.09;72.29;98438.86;1779400;80;26563;-40
2021/04/02 08:47:13;;;;;;;3.47;2.40;;;;;;;9.08;72.23;98446.19;1744143;82;21310;-40
2021/04/02 08:49:43;;;;;;;;;;;;;;;9.01;72.21;98451.52;1782531;80;21174;-40
2021/04/02 08:52:16;;;;;;;2.62;2.20;;;;;;;8.95;72.06;98455.72;1776511;80;20286;-40
2021/04/02 08:54:46;;;;;;;3.02;2.20;;;;;;;8.83;72.07;98460.58;1780209;80;21202;-40
2021/04/02 08:57:14;;;;;;;2.50;2.20;;;;;;;8.83;72.02;98466.77;1781210;80;21174;-40
2021/04/02 08:59:45;;;;;;;2.52;1.95;;;;;;;8.86;72.27;98469.32;1781065;80;21271;-40
2021/04/02 09:02:14;;;;;;;3.72;2.62;;;;;;;8.85;72.23;98469.89;1781074;80;21162;-40
2021/04/02 09:04:42;;;;;;;3.95;2.00;;;;;;;8.80;71.90;98470.22;1750880;80;21043;-40
2021/04/02 09:07:10;;;;;;;2.77;1.77;;;;;;;8.78;71.63;98469.80;1781052;80;21173;-40
2021/04/02 09:09:45;;;;;;;2.12;1.80;;;;;;;8.77;71.58;98470.94;1781149;80;21166;-40
2021/04/02 09:12:16;;;;;;;1.67;1.20;;;;;;;8.79;71.39;98470.01;1781144;80;21190;-40
2021/04/02 09:14:47;;;;;;;1.40;1.10;;;;;;;8.37;71.06;98417.61;1780775;80;21162;-40
2021/04/02 09:17:26;;;;;;;1.10;1.00;;;;;;;8.67;71.02;98481.05;1781108;80;21162;-40
2021/04/02 09:19:54;;;;;;;0.80;0.68;;;;;;;8.63;70.78;98470.77;1781106;80;21614;-40
2021/04/02 09:22:23;;;;;;;1.10;1.02;;;;;;;8.54;70.37;98475.68;1781075;80;21162;-40
2021/04/02 09:24:53;;;;;;;1.22;1.12;;;;;;;8.54;71.04;98470.28;1777581;80;21382;-40
2021/04/02 09:27:23;;;;;;;7.30;3.75;;;;;;;8.59;71.11;98472.66;1713015;81;21605;-40
2021/04/02 09:29:56;;;;;;;2.25;1.32;;;;;;;8.58;70.94;98473.80;1772592;81;21613;-40
2021/04/02 09:32:29;;;;;;;3.40;1.25;;;;;;;8.51;70.99;98465.62;1772215;80;21162;-41
2021/04/02 09:34:58;;;;;;;0.80;0.80;;;;;;;8.45;71.32;98472.48;1772331;81;21150;-41
2021/04/02 09:37:27;;;;;;;0.95;0.85;;;;;;;8.45;70.87;98476.53;1772230;79;21378;-40
2021/04/02 09:40:08;;;;;;;1.00;0.90;;;;;;;8.47;70.43;98490.47;1772308;79;21221;-40
2021/04/02 09:42:36;;;;;;;1.02;0.90;;;;;;;8.42;70.35;98478.06;1772194;79;21166;-40
2021/04/02 09:45:11;;;;;;;0.60;0.60;;;;;;;8.34;69.93;98489.11;1772215;79;21158;-40
2021/04/02 09:47:47;;;;;;;0.70;0.53;;;;;;;8.23;69.77;98482.17;1774362;80;21140;-41
2021/04/02 09:50:17;;;;;;;0.80;0.80;;;;;;;8.11;69.69;98479.14;1802618;79;21360;-41
2021/04/02 09:52:45;;;;;;;0.70;0.70;;;;;;;7.98;69.89;98488.59;1782891;79;21218;-40
2021/04/02 09:55:14;;;;;;;0.70;0.70;;;;;;;7.96;70.10;98488.16;1775064;80;21724;-40
2021/04/02 09:57:42;;;;;;;0.57;0.57;;;;;;;7.91;70.45;98484.42;1790625;79;21178;-40
2021/04/02 10:00:12;;;;;;;0.85;0.82;;;;;;;7.86;70.40;98498.22;1777298;79;21139;-40
2021/04/02 10:02:40;;;;;;;;;;;;;;;7.77;70.42;98495.00;1806977;79;21146;-41
2021/04/02 10:05:10;;;;;;;0.93;0.82;;;;;;;7.69;70.55;98500.08;1786411;79;20286;-40
2021/04/02 10:07:38;;;;;;;2.15;1.00;;;;;;;7.64;70.87;98501.16;1776389;79;21153;-40
2021/04/02 10:10:08;;;;;;;1.07;0.88;;;;;;;7.66;70.42;98504.83;1762205;81;21186;-40
2021/04/02 10:12:36;;;;;;;1.42;0.90;;;;;;;7.64;69.91;98512.52;1736829;82;21211;-40
2021/04/02 10:15:06;;;;;;;0.90;0.78;;;;;;;7.61;69.56;98514.57;1743354;82;21197;-40
2021/04/02 10:17:34;;;;;;;1.35;0.85;;;;;;;7.52;69.44;98516.16;1746668;81;25452;-41
2021/04/02 10:20:04;;;;;;;1.82;1.10;;;;;;;7.45;69.18;98513.36;1728750;82;21068;-40
2021/04/02 10:22:32;;;;;;;2.25;1.05;;;;;;;7.34;69.45;98506.42;1698394;83;21179;-40
2021/04/02 10:25:00;;;;;;;2.72;1.05;;;;;;;7.33;69.66;98505.42;1722837;83;21161;-40
2021/04/02 10:27:28;;;;;;;1.50;0.93;;;;;;;7.27;70.07;98510.33;1713950;81;21657;-40
2021/04/02 10:29:56;;;;;;;3.67;1.47;;;;;;;7.23;70.34;98508.14;1703533;84;21608;-40
2021/04/02 10:32:25;;;;;;;1.17;0.85;;;;;;;7.22;70.62;98516.02;1703611;84;21039;-40
2021/04/02 10:34:54;;;;;;;1.60;0.95;;;;;;;7.23;70.44;98520.27;1716995;81;21052;-40
2021/04/02 10:37:22;;;;;;;1.30;0.90;;;;;;;7.26;70.59;98524.94;1730804;81;21455;-40
2021/04/02 10:39:50;;;;;;;1.07;0.90;;;;;;;7.31;70.57;98526.59;1723524;82;22203;-40
2021/04/02 10:42:18;;;;;;;3.50;1.10;;;;;;;7.35;70.75;98526.08;1728718;82;21217;-40
2021/04/02 10:44:46;;;;;;;2.17;1.15;;;;;;;7.45;70.54;98528.76;1726827;82;21174;-41
2021/04/02 10:47:15;;;;;;;2.17;1.10;;;;;;;7.45;69.96;98528.19;1757869;81;21170;-44
2021/04/02 10:49:43;;;;;;;1.70;0.98;;;;;;;7.41;69.81;98525.97;1742456;81;21191;-43
2021/04/02 10:52:12;;;;;;;2.33;1.02;;;;;;;7.38;70.13;98530.19;1753561;81;21619;-43
2021/04/02 10:54:41;;;;;;;1.10;0.80;;;;;;;7.35;69.83;98525.52;1755597;81;21012;-43
2021/04/02 10:57:09;;;;;;;1.17;0.98;;;;;;;7.33;69.49;98529.13;1760245;81;21462;-43
2021/04/02 10:59:37;;;;;;;1.02;0.80;;;;;;;7.31;69.70;98532.73;1757557;81;21214;-43
2021/04/02 11:02:06;;;;;;;1.45;0.90;;;;;;;7.29;69.26;98530.98;1745789;81;21179;-43
2021/04/02 11:04:33;;;;;;;4.10;1.60;;;;;;;7.27;69.32;98531.90;1753707;81;21352;-43
2021/04/02 11:07:02;;;;;;;1.55;1.10;;;;;;;7.27;70.03;98530.55;1695654;82;21119;-43
2021/04/02 11:09:30;;;;;;;1.52;0.95;;;;;;;7.26;69.91;98530.33;1695794;82;21040;-43
2021/04/02 11:11:58;;;;;;;1.07;0.90;;;;;;;7.27;69.97;98529.20;1765557;81;21184;-43
2021/04/02 11:14:27;;;;;;;1.00;0.80;;;;;;;7.32;69.83;98524.08;1765682;81;21175;-43
2021/04/02 11:16:56;;;;;;;1.55;1.00;;;;;;;7.38;69.64;98530.19;1764871;81;21281;-44
2021/04/02 11:19:24;;;;;;;2.00;0.98;;;;;;;7.37;69.19;98528.62;1761485;81;21030;-43
2021/04/02 11:21:53;;;;;;;2.05;1.02;;;;;;;7.35;69.06;98530.91;1748304;81;21112;-43
2021/04/02 11:24:21;;;;;;;2.27;1.00;;;;;;;7.29;69.02;98528.85;1765586;81;21127;-44
2021/04/02 11:26:49;;;;;;;1.52;1.07;;;;;;;7.21;69.26;98533.31;1710866;82;21206;-43
2021/04/02 11:29:17;;;;;;;1.42;1.00;;;;;;;7.17;69.73;98532.47;1823722;78;21249;-44
2021/04/02 11:31:46;;;;;;;1.85;1.07;;;;;;;7.25;69.81;98532.84;1807878;77;21182;-44
2021/04/02 11:34:14;;;;;;;3.30;1.40;;;;;;;7.35;69.72;98544.39;1822364;78;21015;-43
2021/04/02 11:36:42;;;;;;;1.25;1.05;;;;;;;7.35;69.24;98536.30;1798322;78;21158;-43
2021/04/02 11:39:10;;;;;;;2.12;1.70;;;;;;;7.32;69.11;98541.04;1803852;77;21142;-43
2021/04/02 11:41:38;;;;;;;3.15;1.42;;;;;;;7.30;69.30;98546.59;1793775;79;21387;-43
2021/04/02 11:44:07;;;;;;;2.02;1.67;;;;;;;7.27;69.38;98539.98;1813671;79;21039;-43
2021/04/02 11:46:35;;;;;;;2.00;1.45;;;;;;;7.25;69.44;98549.02;1804897;78;21147;-43